Terminal Aerodrome Forecast
Issued by NWS Pocatello, ID

Home | Current Version | Previous Version | Text Only | Print | Product List | Glossary On
Versions: 1 2 3 4 5 6 7 8 9 10 11 12 13 14 15
422
FTUS45 KPIH 282320
TAFBYI
TAF
KBYI 282320Z 2900/2924 29008KT P6SM VCTS BKN040CB OVC050
     FM290500 25007KT P6SM SCT015 BKN050 OVC090
     FM291600 27012KT P6SM VCTS BKN060CB=

USA.gov is the U.S. government's official web portal to all federal, state and local government web resources and services.